Time;durP1;ratioP1;P1;durP2;ratioP2;P2;SDS_P1;SDS_P2;PMS_P1;PMS_P2;Temp;Humidity;BMP_temperature;BMP_pressure;BME280_temperature;BME280_humidity;BME280_pressure;Samples;Min_cycle;Max_cycle;Signal;HPM_P1;HPM_P2
2022/06/03 09:07:26;;;;;;;11.48;5.33;;;;;;;40.62;41.47;101110.92;1661689;84;21151;-67
2022/06/03 09:10:19;;;;;;;13.90;6.87;;;;;;;40.61;41.39;101124.11;1654284;84;21077;-67
2022/06/03 09:13:10;;;;;;;15.37;7.10;;;;;;;40.16;42.19;101132.73;1651508;84;21034;-67
2022/06/03 09:15:54;;;;;;;11.35;7.47;;;;;;;40.40;43.66;101133.88;1648967;85;21093;-69
2022/06/03 09:19:02;;;;;;;17.45;9.45;;;;;;;40.81;42.91;101139.73;1648005;85;21115;-68
2022/06/03 09:27:17;;;;;;;13.93;7.40;;;;;;;38.90;46.69;101139.88;1608475;86;21620;-68
2022/06/03 09:33:05;;;;;;;8.50;4.45;;;;;;;39.25;47.12;101144.55;1631275;86;21651;-68
2022/06/03 09:35:37;;;;;;;9.95;3.85;;;;;;;39.99;45.65;101148.17;1629462;86;21113;-67
2022/06/03 09:38:06;;;;;;;10.80;3.92;;;;;;;39.19;45.73;101152.25;1635234;84;22331;-70
2022/06/03 09:40:42;;;;;;;8.53;3.87;;;;;;;39.59;45.54;101148.63;1613887;88;21647;-69
2022/06/03 09:43:29;;;;;;;10.30;3.83;;;;;;;39.57;46.17;101143.20;1633510;86;21151;-68
2022/06/03 09:45:59;;;;;;;11.10;3.70;;;;;;;38.74;46.56;101148.19;1635181;88;21075;-68
2022/06/03 09:48:31;;;;;;;7.83;3.62;;;;;;;38.68;46.69;101140.53;1632644;87;21043;-68
2022/06/03 09:53:55;;;;;;;11.35;4.20;;;;;;;39.07;46.53;101134.00;1628962;87;21000;-67
2022/06/03 09:56:29;;;;;;;9.43;3.98;;;;;;;39.12;46.21;101134.10;1633129;87;21120;-67
2022/06/03 09:58:59;;;;;;;8.78;3.95;;;;;;;39.66;45.70;101130.94;1639926;86;21531;-68
2022/06/03 10:01:29;;;;;;;13.62;3.85;;;;;;;40.03;44.97;101120.45;1631487;85;21095;-68
2022/06/03 10:04:00;;;;;;;11.83;4.05;;;;;;;40.16;44.29;101126.00;1641637;86;21126;-69
2022/06/03 10:06:43;;;;;;;10.32;3.83;;;;;;;40.45;43.55;101129.87;1648866;85;21059;-68
2022/06/03 10:17:49;;;;;;;12.68;7.00;;;;;;;40.10;44.31;101121.61;1658703;84;21127;-68
2022/06/03 10:20:19;;;;;;;9.70;4.10;;;;;;;40.07;44.16;101118.08;1645740;84;21073;-67
2022/06/03 10:22:49;;;;;;;9.48;3.70;;;;;;;39.32;43.58;101111.25;1646935;86;21089;-67
2022/06/03 10:25:17;;;;;;;8.78;3.90;;;;;;;39.94;42.28;101117.89;1657525;84;21562;-67
2022/06/03 10:27:46;;;;;;;14.00;4.30;;;;;;;40.59;42.38;101116.80;1660596;85;21060;-67
2022/06/03 10:30:25;;;;;;;10.63;3.90;;;;;;;41.11;41.17;101125.70;1664790;84;21567;-68
2022/06/03 10:32:53;;;;;;;6.22;3.37;;;;;;;40.99;41.82;101129.11;1669451;86;21542;-68
2022/06/03 10:35:26;;;;;;;5.90;2.98;;;;;;;40.53;40.71;101121.33;1637075;86;21110;-67
2022/06/03 10:37:58;;;;;;;8.08;4.03;;;;;;;40.88;41.47;101121.98;1662029;84;21103;-67
2022/06/03 10:40:28;;;;;;;6.97;3.40;;;;;;;39.83;41.59;101120.14;1667723;85;21027;-67
2022/06/03 10:43:00;;;;;;;12.25;3.75;;;;;;;40.00;41.71;101120.93;1638162;87;21127;-67
2022/06/03 10:45:30;;;;;;;9.18;3.30;;;;;;;40.55;41.57;101113.80;1660537;86;21063;-67
2022/06/03 10:47:58;;;;;;;7.55;3.85;;;;;;;40.16;41.61;101114.40;1665690;84;21557;-67
2022/06/03 10:50:38;;;;;;;10.10;3.60;;;;;;;41.28;41.03;101123.44;1645020;85;21055;-68
2022/06/03 11:01:06;;;;;;;5.15;3.02;;;;;;;41.24;40.66;101110.47;1651864;85;21544;-68
2022/06/03 11:01:48;;;;;;;8.73;3.70;;;;;;;41.11;39.99;101118.95;1655881;84;21052;-68
2022/06/03 11:04:30;;;;;;;10.43;3.33;;;;;;;41.10;39.58;101103.81;1683213;85;21345;-69
2022/06/03 11:07:02;;;;;;;10.00;3.30;;;;;;;40.85;40.30;101120.07;1677814;84;21579;-68
2022/06/03 11:09:30;;;;;;;9.95;3.65;;;;;;;40.53;40.30;101107.83;1671006;85;21590;-68
2022/06/03 11:12:05;;;;;;;8.48;3.37;;;;;;;40.16;41.49;101104.42;1671462;83;21527;-67
2022/06/03 11:14:42;;;;;;;7.50;3.80;;;;;;;40.30;41.98;101112.14;1689318;84;21043;-67
2022/06/03 11:17:20;;;;;;;8.78;3.90;;;;;;;40.52;41.83;101104.06;1685814;84;21039;-67
2022/06/03 11:19:52;;;;;;;8.60;3.98;;;;;;;40.87;42.22;101100.92;1681250;84;21083;-69
2022/06/03 11:22:28;;;;;;;10.00;3.70;;;;;;;40.62;42.66;101105.52;1681207;85;21496;-67
2022/06/03 11:25:26;;;;;;;4.92;3.12;;;;;;;40.64;41.87;101097.44;1681297;83;21068;-68
2022/06/03 11:28:11;;;;;;;5.45;3.08;;;;;;;40.53;42.20;101091.64;1694108;84;20997;-68
2022/06/03 11:31:01;;;;;;;6.10;3.37;;;;;;;40.90;39.71;101094.19;1678538;84;21069;-67
2022/06/03 11:33:39;;;;;;;10.78;3.85;;;;;;;42.09;40.05;101083.14;1675711;83;21035;-67
2022/06/03 11:36:33;;;;;;;6.97;3.58;;;;;;;41.48;41.03;101087.10;1686592;83;21037;-67
2022/06/03 11:39:14;;;;;;;7.33;3.05;;;;;;;41.24;40.60;101087.50;1670377;83;21037;-67
2022/06/03 11:41:47;;;;;;;8.43;3.60;;;;;;;41.28;41.27;101091.83;1664903;83;21028;-68
2022/06/03 11:44:22;;;;;;;11.38;3.50;;;;;;;40.62;41.29;101098.23;1664942;85;21053;-67
2022/06/03 11:47:18;;;;;;;6.90;3.20;;;;;;;40.88;41.20;101093.12;1667732;85;21103;-67
2022/06/03 11:49:46;;;;;;;8.48;2.85;;;;;;;41.09;40.99;101092.74;1679504;83;21068;-66
2022/06/03 11:52:15;;;;;;;7.60;3.08;;;;;;;40.94;41.13;101075.89;1671840;85;21029;-66
2022/06/03 11:54:43;;;;;;;9.83;3.27;;;;;;;41.51;40.59;101087.11;1670135;83;21076;-66
2022/06/03 11:57:11;;;;;;;6.45;2.92;;;;;;;40.93;40.76;101082.89;1710482;83;21013;-67
2022/06/03 11:59:52;;;;;;;6.78;3.27;;;;;;;41.03;40.45;101080.27;1705641;83;21023;-67
2022/06/03 12:02:40;;;;;;;7.35;2.90;;;;;;;40.87;41.07;101079.32;1699230;83;21068;-68
2022/06/03 12:05:13;;;;;;;7.95;3.40;;;;;;;39.95;41.48;101080.98;1715366;82;21052;-67
2022/06/03 12:08:12;;;;;;;6.97;3.47;;;;;;;39.51;42.48;101077.64;1697529;83;21008;-68
2022/06/03 12:11:06;;;;;;;9.23;4.05;;;;;;;40.20;42.45;101079.12;1692489;83;21599;-67
2022/06/03 12:13:36;;;;;;;5.17;3.15;;;;;;;41.11;41.26;101085.20;1712819;83;21572;-67
2022/06/03 12:16:14;;;;;;;7.97;3.65;;;;;;;40.11;42.71;101088.70;1684186;83;21031;-67
2022/06/03 12:18:58;;;;;;;7.20;3.50;;;;;;;39.40;43.59;101082.05;1714106;82;21086;-67
2022/06/03 12:21:37;;;;;;;6.28;3.65;;;;;;;40.19;42.94;101079.66;1713815;83;21016;-66
2022/06/03 12:24:32;;;;;;;8.85;3.55;;;;;;;40.85;42.70;101086.32;1709807;83;21540;-66
2022/06/03 12:27:04;;;;;;;6.72;3.58;;;;;;;40.34;42.68;101078.23;1691339;83;21558;-68
2022/06/03 12:29:42;;;;;;;7.58;3.30;;;;;;;39.90;42.95;101081.70;1718823;81;21051;-67
2022/06/03 12:32:16;;;;;;;8.53;3.67;;;;;;;40.35;42.61;101079.34;1691485;83;21126;-66
2022/06/03 12:34:44;;;;;;;7.20;3.67;;;;;;;41.18;41.50;101081.78;1696216;81;21098;-66
2022/06/03 12:37:29;;;;;;;5.90;3.72;;;;;;;40.50;41.60;101082.72;1713367;82;21059;-66
2022/06/03 12:40:00;;;;;;;6.92;3.30;;;;;;;40.69;42.04;101082.37;1699388;81;21072;-66
2022/06/03 12:42:35;;;;;;;5.15;3.70;;;;;;;40.36;42.34;101082.30;1705109;82;21556;-66
2022/06/03 12:45:13;;;;;;;6.15;3.83;;;;;;;40.71;41.83;101079.68;1706036;82;21087;-66
2022/06/03 12:47:49;;;;;;;5.55;3.25;;;;;;;40.92;41.13;101088.83;1698893;83;21595;-66
2022/06/03 12:50:39;;;;;;;8.18;3.20;;;;;;;41.59;40.55;101090.19;1715282;83;21519;-66
2022/06/03 12:53:32;;;;;;;6.12;3.25;;;;;;;41.48;41.05;101095.21;1703838;82;21087;-68
2022/06/03 12:56:06;;;;;;;8.68;3.80;;;;;;;41.33;40.05;101085.67;1698531;82;21045;-66
2022/06/03 12:58:50;;;;;;;6.30;3.30;;;;;;;41.39;40.90;101086.78;1717038;83;21574;-66
2022/06/03 13:01:59;;;;;;;6.70;3.87;;;;;;;41.64;41.04;101078.03;1681794;83;21040;-66
2022/06/03 13:04:56;;;;;;;7.37;3.77;;;;;;;40.99;41.44;101077.81;1699306;83;21055;-66
2022/06/03 13:07:32;;;;;;;7.10;3.77;;;;;;;40.81;41.21;101093.30;1696979;83;21104;-67
2022/06/03 13:10:20;;;;;;;9.13;3.72;;;;;;;40.62;41.54;101090.67;1714249;84;21559;-68
2022/06/03 13:12:51;;;;;;;8.45;4.10;;;;;;;41.15;41.79;101100.36;1697047;82;21088;-66
2022/06/03 13:15:23;;;;;;;7.87;4.20;;;;;;;42.00;41.08;101097.69;1709451;83;21063;-66
2022/06/03 13:18:10;;;;;;;10.45;4.20;;;;;;;41.29;41.50;101092.66;1691602;83;21043;-66
2022/06/03 13:21:03;;;;;;;6.62;3.70;;;;;;;40.11;43.09;101085.50;1688147;84;21563;-67
2022/06/03 13:23:57;;;;;;;7.37;4.10;;;;;;;40.45;42.96;101076.75;1687483;82;21106;-67
2022/06/03 13:26:30;;;;;;;8.23;3.75;;;;;;;40.96;42.07;101088.59;1689553;83;21068;-67
2022/06/03 13:29:00;;;;;;;6.75;3.62;;;;;;;40.88;42.71;101088.23;1689354;82;21059;-66
2022/06/03 13:31:57;;;;;;;8.53;3.85;;;;;;;40.80;42.42;101089.53;1678967;84;21553;-66
2022/06/03 13:34:32;;;;;;;8.63;3.95;;;;;;;40.87;41.82;101092.02;1685489;82;21021;-67
2022/06/03 13:37:31;;;;;;;10.58;3.85;;;;;;;41.01;41.71;101084.57;1700580;84;21067;-68
2022/06/03 13:40:02;;;;;;;7.58;4.00;;;;;;;40.12;42.59;101075.52;1646035;85;21087;-66
2022/06/03 13:46:02;;;;;;;10.53;3.70;;;;;;;39.48;43.12;101079.50;1700315;83;21551;-66
2022/06/03 13:48:52;;;;;;;7.20;3.62;;;;;;;39.46;42.88;101081.63;1701480;82;21001;-66
2022/06/03 13:51:31;;;;;;;8.98;3.67;;;;;;;40.19;42.14;101073.43;1681526;83;21138;-66
2022/06/03 13:54:03;;;;;;;9.23;3.62;;;;;;;40.41;41.57;101065.34;1700125;83;21107;-66
2022/06/03 13:56:32;;;;;;;7.67;3.72;;;;;;;40.66;42.14;101068.85;1697875;84;21033;-66
2022/06/03 13:59:03;;;;;;;8.35;3.40;;;;;;;39.86;42.47;101069.80;1705704;83;21060;-66
2022/06/03 14:01:44;;;;;;;10.05;3.83;;;;;;;40.60;41.14;101073.38;1700534;83;21105;-66
2022/06/03 14:04:28;;;;;;;7.80;3.40;;;;;;;41.04;41.22;101071.08;1700148;82;21601;-66
2022/06/03 14:07:06;;;;;;;9.03;3.45;;;;;;;39.95;42.13;101068.31;1681165;84;21108;-66
2022/06/03 14:09:48;;;;;;;8.03;3.50;;;;;;;39.13;42.95;101071.09;1696597;83;21624;-65
2022/06/03 14:12:27;;;;;;;7.17;3.27;;;;;;;39.22;42.51;101075.03;1713511;83;21092;-67
2022/06/03 14:15:11;;;;;;;8.43;3.45;;;;;;;38.23;44.59;101067.28;1703115;83;21048;-66
2022/06/03 14:17:55;;;;;;;6.30;3.52;;;;;;;38.95;43.48;101065.41;1707205;82;21036;-65
2022/06/03 14:20:33;;;;;;;7.28;3.77;;;;;;;39.71;41.81;101065.53;1700100;81;20995;-65
2022/06/03 14:23:12;;;;;;;8.43;3.67;;;;;;;40.36;41.49;101058.02;1702995;83;21055;-67
2022/06/03 14:25:51;;;;;;;10.55;3.42;;;;;;;40.16;42.33;101057.77;1699526;82;21092;-68
2022/06/03 14:28:56;;;;;;;8.68;3.55;;;;;;;40.06;41.61;101059.80;1694076;82;21528;-66
2022/06/03 14:31:53;;;;;;;7.67;3.60;;;;;;;40.51;41.57;101063.30;1707816;82;21087;-65
2022/06/03 14:34:35;;;;;;;13.85;4.20;;;;;;;40.45;40.81;101062.42;1707907;83;21068;-66
2022/06/03 14:37:07;;;;;;;5.50;3.37;;;;;;;40.58;40.72;101062.03;1686371;83;21534;-66
2022/06/03 14:39:39;;;;;;;8.90;3.30;;;;;;;40.20;40.33;101058.89;1686040;83;21538;-66
2022/06/03 14:42:12;;;;;;;7.42;3.30;;;;;;;39.56;41.24;101052.64;1698610;84;21049;-67
2022/06/03 14:44:43;;;;;;;7.15;3.22;;;;;;;39.29;41.89;101045.23;1679171;85;21039;-66
2022/06/03 14:47:31;;;;;;;7.37;3.47;;;;;;;39.00;41.91;101048.55;1655714;85;21099;-67
2022/06/03 14:50:10;;;;;;;6.50;3.22;;;;;;;38.54;42.51;101046.38;1693052;82;21040;-65
2022/06/03 14:52:45;;;;;;;4.60;3.00;;;;;;;39.29;41.69;101045.23;1704357;83;21542;-67
2022/06/03 14:55:32;;;;;;;4.55;3.15;;;;;;;39.73;41.17;101046.70;1701344;82;21156;-66
2022/06/03 14:58:17;;;;;;;6.30;3.20;;;;;;;40.60;40.40;101042.89;1698876;82;21152;-65
2022/06/03 15:01:14;;;;;;;5.65;3.20;;;;;;;39.75;41.18;101042.41;1686035;83;21044;-67
2022/06/03 15:04:09;;;;;;;7.03;2.98;;;;;;;38.98;41.96;101037.22;1631334;86;21075;-66
2022/06/03 15:07:04;;;;;;;4.55;2.90;;;;;;;38.79;41.59;101033.89;1613168;87;21643;-67
2022/06/03 15:09:46;;;;;;;6.90;3.05;;;;;;;39.88;40.42;101041.25;1631772;87;21068;-66
2022/06/03 15:12:20;;;;;;;5.05;2.85;;;;;;;39.39;41.35;101054.00;1641843;85;21114;-66
2022/06/03 15:14:50;;;;;;;7.60;3.30;;;;;;;40.43;40.38;101060.00;1613363;87;21102;-68
2022/06/03 15:17:28;;;;;;;5.35;3.50;;;;;;;40.35;40.36;101073.10;1665575;85;21083;-67
2022/06/03 15:20:08;;;;;;;5.60;2.90;;;;;;;40.22;40.14;101071.05;1655627;86;21067;-66
2022/06/03 15:22:40;;;;;;;6.00;3.10;;;;;;;39.32;41.39;101085.16;1602791;88;21071;-66
2022/06/03 15:25:15;;;;;;;5.37;3.17;;;;;;;39.20;40.96;101091.16;1609151;86;21121;-67
2022/06/03 15:27:52;;;;;;;4.67;2.55;;;;;;;39.11;41.15;101100.68;1608655;87;21110;-66
2022/06/03 15:30:40;;;;;;;7.45;3.02;;;;;;;40.44;39.26;101096.69;1647378;85;21505;-67
2022/06/03 15:33:17;;;;;;;6.55;3.15;;;;;;;41.32;38.82;101106.45;1679861;85;21076;-66
2022/06/03 15:35:45;;;;;;;5.35;3.20;;;;;;;40.76;39.02;101108.12;1666107;84;21068;-66
2022/06/03 15:38:17;;;;;;;6.83;3.22;;;;;;;40.87;38.36;101116.31;1631360;87;21107;-66
2022/06/03 15:40:58;;;;;;;5.75;2.95;;;;;;;40.52;38.42;101115.66;1638530;86;21072;-67
2022/06/03 15:43:29;;;;;;;4.70;3.20;;;;;;;39.92;39.80;101112.47;1695140;84;21013;-66
2022/06/03 15:45:56;;;;;;;6.37;3.20;;;;;;;39.55;40.50;101113.00;1694085;83;21074;-66
2022/06/03 15:48:28;;;;;;;8.73;3.70;;;;;;;39.95;40.73;101106.59;1683631;84;21001;-66
2022/06/03 15:51:11;;;;;;;4.33;3.10;;;;;;;40.57;39.60;101119.75;1668885;84;21541;-66
2022/06/03 15:53:52;;;;;;;4.65;2.70;;;;;;;40.27;39.78;101120.22;1642954;85;21515;-66
2022/06/03 15:56:46;;;;;;;6.78;2.92;;;;;;;40.76;39.38;101127.55;1674773;85;21018;-66
2022/06/03 15:59:36;;;;;;;6.83;2.95;;;;;;;40.50;39.42;101121.04;1688050;83;21551;-66
2022/06/03 16:02:41;;;;;;;7.47;3.00;;;;;;;40.43;39.30;101127.45;1673748;83;21056;-66
2022/06/03 16:05:20;;;;;;;6.37;3.37;;;;;;;40.63;39.10;101128.72;1669552;85;21471;-66
2022/06/03 16:08:16;;;;;;;4.90;2.80;;;;;;;40.04;39.54;101129.34;1671777;83;21099;-66
2022/06/03 16:11:04;;;;;;;5.03;3.05;;;;;;;40.38;39.56;101126.03;1677237;84;20995;-65
2022/06/03 16:14:01;;;;;;;4.87;2.80;;;;;;;40.31;39.67;101126.77;1674483;83;21067;-65
2022/06/03 16:17:02;;;;;;;6.28;3.12;;;;;;;40.06;40.27;101125.33;1685047;84;21582;-65
2022/06/03 16:19:50;;;;;;;4.20;2.95;;;;;;;40.35;40.28;101127.05;1682719;85;21471;-65
2022/06/03 16:22:51;;;;;;;4.30;3.15;;;;;;;40.22;40.71;101122.30;1684011;84;21001;-67
2022/06/03 16:25:48;;;;;;;7.22;3.37;;;;;;;39.00;41.76;101119.36;1663669;85;21037;-66
2022/06/03 16:28:43;;;;;;;5.35;3.20;;;;;;;40.06;40.65;101121.28;1679582;84;21029;-65
2022/06/03 16:31:28;;;;;;;4.08;2.98;;;;;;;39.72;40.93;101108.39;1663587;84;21042;-66
2022/06/03 16:34:20;;;;;;;5.92;3.20;;;;;;;39.07;41.94;101105.73;1674483;84;21001;-66
2022/06/03 16:37:23;;;;;;;3.37;2.90;;;;;;;39.61;41.33;101107.43;1677656;83;21582;-66
2022/06/03 16:40:05;;;;;;;6.22;3.00;;;;;;;37.70;44.40;101103.21;1682790;85;21065;-66
2022/06/03 16:42:49;;;;;;;5.23;3.27;;;;;;;39.17;42.44;101102.40;1668431;84;21501;-66
2022/06/03 16:46:16;;;;;;;6.03;3.47;;;;;;;39.73;41.70;101103.83;1671825;83;22643;-65
2022/06/03 16:48:14;;;;;;;6.60;3.30;;;;;;;39.55;41.97;101108.95;1659621;84;21097;-65
2022/06/03 16:50:43;;;;;;;5.20;3.27;;;;;;;38.88;42.83;101106.45;1662931;85;21484;-66
2022/06/03 16:53:19;;;;;;;5.92;3.40;;;;;;;38.06;44.29;101108.84;1666005;84;21038;-66
2022/06/03 16:55:54;;;;;;;4.78;3.40;;;;;;;38.32;43.93;101103.48;1666933;84;21042;-67
2022/06/03 16:58:22;;;;;;;5.12;3.62;;;;;;;37.47;45.37;101098.06;1672259;84;21033;-66
2022/06/03 17:00:59;;;;;;;5.97;3.33;;;;;;;36.80;46.46;101104.95;1664279;85;21144;-66
2022/06/03 17:03:37;;;;;;;6.80;3.20;;;;;;;36.34;47.19;101106.35;1675671;84;21610;-66
2022/06/03 17:06:08;;;;;;;6.00;3.60;;;;;;;36.25;47.21;101111.17;1680342;83;20993;-67
2022/06/03 17:08:52;;;;;;;5.17;3.15;;;;;;;36.37;47.09;101117.42;1669704;85;21070;-65
2022/06/03 17:11:35;;;;;;;3.87;3.30;;;;;;;36.39;47.02;101117.20;1669598;84;21026;-66
2022/06/03 17:14:14;;;;;;;5.45;3.90;;;;;;;36.27;47.68;101119.81;1686974;83;21077;-67
2022/06/03 17:16:45;;;;;;;5.83;3.62;;;;;;;35.89;48.21;101122.97;1668312;83;21010;-66
2022/06/03 17:19:14;;;;;;;6.05;4.30;;;;;;;35.60;49.19;101125.75;1670846;85;21462;-66
2022/06/03 17:22:11;;;;;;;5.55;4.30;;;;;;;36.02;48.69;101126.55;1669024;84;21018;-66
2022/06/03 17:25:18;;;;;;;4.20;3.80;;;;;;;35.62;49.20;101131.71;1686061;83;21077;-68
2022/06/03 17:28:06;;;;;;;7.53;4.00;;;;;;;35.84;49.02;101137.53;1662913;84;21605;-66
2022/06/03 17:30:37;;;;;;;5.15;4.20;;;;;;;35.58;49.67;101131.03;1671919;83;21126;-67
2022/06/03 17:33:15;;;;;;;4.62;3.90;;;;;;;35.26;50.13;101135.91;1663978;84;21039;-66
2022/06/03 17:36:07;;;;;;;6.03;3.90;;;;;;;35.07;50.65;101136.30;1680980;85;21043;-66
2022/06/03 17:39:00;;;;;;;5.65;4.10;;;;;;;35.32;50.40;101138.22;1669659;85;21522;-67
2022/06/03 17:41:48;;;;;;;4.90;4.40;;;;;;;34.98;51.17;101130.91;1658942;83;21046;-67
2022/06/03 17:44:51;;;;;;;5.62;3.98;;;;;;;34.79;51.68;101129.95;1682513;84;21072;-69
2022/06/03 17:47:27;;;;;;;5.05;3.85;;;;;;;34.99;51.13;101129.86;1687088;84;21154;-66
2022/06/03 17:50:02;;;;;;;6.00;4.08;;;;;;;35.53;50.41;101139.73;1675597;85;21590;-68
2022/06/03 17:55:42;;;;;;;8.28;4.37;;;;;;;34.77;51.78;101140.05;1614686;84;21052;-65
2022/06/03 17:58:35;;;;;;;5.75;4.17;;;;;;;35.40;50.78;101148.66;1693760;84;21055;-67
2022/06/03 18:01:19;;;;;;;5.50;4.22;;;;;;;35.71;50.28;101147.04;1639615;85;21107;-66
2022/06/03 18:04:17;;;;;;;4.78;4.25;;;;;;;35.45;50.59;101156.88;1684458;84;21618;-66
2022/06/03 18:07:19;;;;;;;7.70;4.58;;;;;;;35.71;50.13;101159.09;1681251;84;21072;-66
2022/06/03 18:10:02;;;;;;;6.80;5.00;;;;;;;34.99;51.92;101151.78;1670458;83;21051;-68
2022/06/03 18:12:33;;;;;;;8.80;4.87;;;;;;;34.99;51.92;101151.78;1668740;83;21538;-68
2022/06/03 18:15:11;;;;;;;4.90;4.40;;;;;;;34.80;52.14;101143.65;1650127;85;21057;-67
2022/06/03 18:17:46;;;;;;;5.47;4.33;;;;;;;34.80;52.14;101143.65;1673132;83;21745;-68
2022/06/03 18:20:35;;;;;;;7.65;4.78;;;;;;;34.64;52.45;101137.42;1665101;85;21085;-68
2022/06/03 18:23:08;;;;;;;6.33;4.45;;;;;;;33.01;54.83;101143.13;1664457;84;21791;-68
2022/06/03 18:26:01;;;;;;;5.97;4.30;;;;;;;33.01;54.83;101143.13;1667279;85;21082;-68
2022/06/03 18:29:07;;;;;;;7.92;4.78;;;;;;;33.97;53.81;101144.75;1686588;83;22250;-68
2022/06/03 18:32:21;;;;;;;6.78;4.30;;;;;;;33.99;53.56;101138.16;1680060;84;21548;-68
2022/06/03 18:35:09;;;;;;;5.42;4.92;;;;;;;33.83;54.15;101139.41;1673494;83;21025;-68
2022/06/03 18:38:15;;;;;;;6.10;4.92;;;;;;;33.57;54.62;101135.37;1667272;85;21070;-69
2022/06/03 18:41:08;;;;;;;6.53;4.62;;;;;;;33.73;54.35;101137.14;1670123;83;21094;-68
2022/06/03 18:43:42;;;;;;;5.47;4.50;;;;;;;33.16;55.46;101145.69;1659887;84;21612;-67
2022/06/03 18:46:38;;;;;;;6.40;4.95;;;;;;;33.50;55.02;101138.86;1664285;83;21089;-68
2022/06/03 18:49:41;;;;;;;6.60;5.00;;;;;;;34.23;53.68;101143.40;1664091;84;21019;-67
2022/06/03 18:52:30;;;;;;;8.18;4.75;;;;;;;34.49;53.12;101140.33;1632310;87;21907;-68
2022/06/03 18:55:30;;;;;;;6.50;5.33;;;;;;;34.50;53.26;101142.80;1641942;84;21101;-68
2022/06/03 18:58:19;;;;;;;7.08;5.20;;;;;;;34.75;52.60;101138.10;1641366;84;21200;-68
2022/06/03 19:01:16;;;;;;;7.28;4.95;;;;;;;34.57;53.03;101142.77;1656461;84;21281;-69
2022/06/03 19:04:07;;;;;;;7.85;5.28;;;;;;;34.21;53.58;101153.48;1672178;85;21085;-69
2022/06/03 19:07:15;;;;;;;7.37;5.35;;;;;;;34.19;53.64;101155.53;1669763;84;21100;-68
2022/06/03 19:10:06;;;;;;;8.68;5.33;;;;;;;33.86;54.16;101155.03;1681545;84;21115;-67
2022/06/03 19:13:03;;;;;;;6.45;5.42;;;;;;;34.28;53.64;101164.14;1674695;84;20999;-67
2022/06/03 19:15:54;;;;;;;9.88;5.58;;;;;;;34.08;53.68;101176.16;1671570;84;21849;-67
2022/06/03 19:18:30;;;;;;;7.50;5.80;;;;;;;33.91;53.85;101168.58;1655512;84;21026;-67
2022/06/03 19:21:25;;;;;;;7.78;5.75;;;;;;;33.83;53.83;101173.31;1689654;84;21059;-66
2022/06/03 19:24:12;;;;;;;6.40;5.75;;;;;;;34.26;52.88;101175.03;1679625;84;21114;-67
2022/06/03 19:26:49;;;;;;;6.47;5.75;;;;;;;33.56;53.74;101170.59;1607702;86;21476;-67
2022/06/03 19:29:23;;;;;;;7.67;6.10;;;;;;;33.71;53.74;101178.44;1688566;84;20997;-70
2022/06/03 19:32:01;;;;;;;10.85;6.35;;;;;;;33.11;55.15;101175.13;1671647;85;21048;-66
2022/06/03 19:34:45;;;;;;;9.25;6.22;;;;;;;33.47;54.55;101168.62;1677659;85;21055;-66
2022/06/03 19:37:56;;;;;;;9.08;6.22;;;;;;;33.61;54.11;101169.48;1670088;85;21073;-67
2022/06/03 19:40:37;;;;;;;8.08;7.28;;;;;;;33.69;54.17;101174.62;1677936;84;21069;-68
2022/06/03 19:43:28;;;;;;;8.15;6.58;;;;;;;33.44;54.50;101162.36;1688468;84;21039;-66
2022/06/03 19:46:29;;;;;;;9.03;7.20;;;;;;;33.47;54.40;101167.80;1696697;83;21043;-67
2022/06/03 19:49:13;;;;;;;9.55;7.00;;;;;;;33.11;55.35;101162.27;1694134;84;21040;-67
2022/06/03 19:52:19;;;;;;;7.60;6.75;;;;;;;32.97;55.86;101164.07;1670675;83;21099;-67
2022/06/03 19:55:13;;;;;;;8.75;7.20;;;;;;;32.76;56.31;101164.17;1695260;84;21527;-67
2022/06/03 19:57:51;;;;;;;8.98;7.30;;;;;;;33.04;55.72;101164.09;1681124;83;20992;-67
2022/06/03 20:00:27;;;;;;;10.08;7.20;;;;;;;33.11;55.78;101172.45;1643036;86;21034;-68
2022/06/03 20:03:38;;;;;;;9.58;7.30;;;;;;;32.98;56.15;101174.22;1626651;86;21012;-67
2022/06/03 20:06:23;;;;;;;7.95;6.55;;;;;;;32.87;55.98;101175.63;1631258;86;21111;-67
2022/06/03 20:09:09;;;;;;;10.05;6.97;;;;;;;33.10;55.67;101172.65;1656980;86;21089;-68
2022/06/03 20:14:39;;;;;;;7.97;7.17;;;;;;;32.77;56.38;101163.14;1605306;88;21533;-67
2022/06/03 20:17:22;;;;;;;7.83;7.10;;;;;;;32.65;56.75;101170.91;1669940;83;22226;-67
2022/06/03 20:19:59;;;;;;;8.73;7.20;;;;;;;32.92;56.37;101165.98;1688122;84;21055;-68
2022/06/03 20:22:43;;;;;;;8.25;7.22;;;;;;;33.38;55.20;101165.84;1689444;85;21087;-68
2022/06/03 20:25:34;;;;;;;8.03;7.17;;;;;;;32.29;56.66;101164.71;1681649;84;21483;-68
2022/06/03 20:28:28;;;;;;;7.85;7.08;;;;;;;32.78;56.19;101164.80;1691999;84;21023;-67
2022/06/03 20:31:25;;;;;;;8.60;6.90;;;;;;;32.68;56.04;101161.16;1665674;85;21025;-67
2022/06/03 20:34:24;;;;;;;8.08;7.35;;;;;;;32.97;55.85;101166.73;1675591;85;20967;-67
2022/06/03 20:37:19;;;;;;;8.88;7.97;;;;;;;33.09;55.15;101167.83;1672094;83;21203;-67
2022/06/03 20:40:08;;;;;;;12.78;8.33;;;;;;;32.88;55.73;101172.73;1683953;83;21046;-66
2022/06/03 20:42:51;;;;;;;10.00;7.85;;;;;;;32.52;56.31;101184.92;1679670;84;21003;-67
2022/06/03 20:45:26;;;;;;;8.53;7.65;;;;;;;32.91;55.94;101183.53;1678490;85;21122;-68
2022/06/03 20:48:26;;;;;;;8.73;7.62;;;;;;;32.48;56.84;101187.19;1681474;85;21048;-67
2022/06/03 20:51:11;;;;;;;13.60;7.92;;;;;;;32.87;55.80;101189.77;1658566;84;21626;-68
2022/06/03 20:54:01;;;;;;;11.18;7.83;;;;;;;32.86;55.57;101191.30;1672448;84;21055;-67
2022/06/03 20:56:36;;;;;;;10.20;7.50;;;;;;;33.23;54.64;101191.34;1678940;83;21060;-68
2022/06/03 20:59:17;;;;;;;8.25;7.35;;;;;;;33.15;54.86;101192.05;1680478;84;21046;-66
2022/06/03 21:02:18;;;;;;;8.53;7.50;;;;;;;32.78;55.31;101192.80;1680395;83;21135;-67
2022/06/03 21:13:40;;;;;;;8.85;7.95;;;;;;;32.51;56.54;101191.30;1680784;85;21083;-66
2022/06/03 21:16:08;;;;;;;10.78;7.85;;;;;;;32.66;56.08;101193.86;1677263;83;21587;-66
2022/06/03 21:18:36;;;;;;;9.80;7.95;;;;;;;32.58;55.97;101193.50;1669857;84;21063;-66
2022/06/03 21:21:18;;;;;;;9.38;8.18;;;;;;;32.57;56.08;101201.20;1676697;85;21080;-66
2022/06/03 21:24:09;;;;;;;9.80;8.05;;;;;;;32.28;56.32;101195.53;1674810;85;21007;-67
2022/06/03 21:26:37;;;;;;;9.38;8.30;;;;;;;32.65;55.86;101202.89;1628646;85;21171;-68
2022/06/03 21:29:05;;;;;;;10.15;8.13;;;;;;;32.33;56.84;101191.80;1664421;85;21016;-68
2022/06/03 21:31:57;;;;;;;11.55;8.08;;;;;;;32.23;56.68;101191.31;1730481;81;21159;-67
2022/06/03 21:35:03;;;;;;;11.18;9.00;;;;;;;32.25;56.84;101190.09;1726417;81;21015;-68
2022/06/03 21:38:19;;;;;;;9.08;7.95;;;;;;;32.18;57.24;101196.39;1710187;83;21005;-70
2022/06/03 21:41:05;;;;;;;9.10;8.20;;;;;;;32.54;56.38;101197.55;1736317;82;21440;-68
2022/06/03 21:43:56;;;;;;;10.23;9.20;;;;;;;31.97;57.62;101192.71;1707550;83;21036;-67
2022/06/03 21:46:41;;;;;;;12.13;8.90;;;;;;;32.09;57.80;101193.05;1733715;81;22217;-67
2022/06/03 21:49:35;;;;;;;9.95;8.90;;;;;;;32.24;56.97;101191.12;1748016;80;20977;-67
2022/06/03 21:52:20;;;;;;;9.95;8.95;;;;;;;32.74;56.11;101192.36;1719999;81;21024;-67
2022/06/03 21:55:04;;;;;;;10.15;9.23;;;;;;;32.87;55.80;101204.95;1741534;81;21069;-67
2022/06/03 21:57:56;;;;;;;12.03;9.30;;;;;;;32.26;56.99;101204.23;1724774;82;21028;-67
2022/06/03 22:00:36;;;;;;;11.93;9.20;;;;;;;32.39;56.96;101207.00;1735748;82;21001;-68
2022/06/03 22:03:07;;;;;;;12.20;8.95;;;;;;;32.52;56.81;101205.77;1719786;81;21468;-68
2022/06/03 22:05:35;;;;;;;10.68;9.43;;;;;;;32.37;56.90;101206.37;1722211;82;21047;-67
2022/06/03 22:08:05;;;;;;;12.90;10.28;;;;;;;32.28;57.27;101214.19;1715169;83;21080;-69
2022/06/03 22:10:35;;;;;;;12.98;9.85;;;;;;;32.22;57.44;101219.80;1708958;83;21059;-67
2022/06/03 22:13:05;;;;;;;11.65;9.90;;;;;;;32.26;57.22;101224.21;1724249;82;21051;-67
2022/06/03 22:15:34;;;;;;;12.23;10.18;;;;;;;32.12;57.33;101217.98;1681142;83;21055;-67
2022/06/03 22:18:05;;;;;;;12.25;10.98;;;;;;;31.74;58.11;101222.22;1709389;83;21048;-68
2022/06/03 22:20:36;;;;;;;13.00;10.80;;;;;;;31.47;59.03;101218.44;1712492;82;21041;-67
2022/06/03 22:23:06;;;;;;;13.95;11.38;;;;;;;32.03;57.90;101218.61;1720220;83;21082;-68
2022/06/03 22:25:54;;;;;;;13.90;11.68;;;;;;;32.22;56.79;101219.80;1719839;83;21035;-68